Date,TemperatureHighF,TemperatureAvgF,TemperatureLowF,DewpointHighF,DewpointAvgF,DewpointLowF,HumidityHigh,HumidityAvg,HumidityLow,PressureMaxIn,PressureMinIn,WindSpeedMaxMPH,WindSpeedAvgMPH,GustSpeedMaxMPH,PrecipitationSumIn
2014-1-1,38.0,30.5,23.2,26.1,19.7,13.9,67,64,59,30.38,30.16,8,2,8,0.00
2014-1-2,29.3,29.1,29.0,16.7,15.5,14.0,59,56,53,30.16,30.11,2,1,2,0.00
2014-1-3,10.8,9.6,7.2,-1.2,-1.8,-3.0,63,59,55,30.43,30.38,7,3,7,0.00
2014-1-4,25.7,17.1,6.3,12.4,6.2,-3.2,68,62,55,30.42,30.24,12,2,12,0.00
2014-1-5,42.3,32.3,21.4,23.7,3.6,-17.4,66,36,1,30.26,29.70,12,2,12,0.00
2014-1-6,42.8,26.2,-0.7,21.1,0.3,-15.1,66,39,1,29.99,29.56,16,7,16,0.00
2014-1-7,5.6,0.4,-5.4,-5.6,-10.2,-16.0,65,61,55,30.36,29.99,14,7,14,0.00
2014-1-8,21.4,13.8,3.4,9.6,2.2,-5.6,67,60,48,30.52,30.35,8,3,8,0.00
2014-1-9,32.9,26.5,20.7,21.3,16.5,9.0,69,66,60,30.62,30.46,8,1,8,0.00
2014-1-10,39.8,32.8,27.0,18.5,6.1,-15.8,68,36,1,30.54,30.17,5,1,5,0.00
2014-1-11,49.0,45.0,38.5,-5.2,-8.3,-13.3,1,1,1,30.17,29.66,12,4,12,0.00
2014-1-12,40.7,37.5,34.2,28.4,24.8,20.5,62,60,55,30.15,29.95,11,5,11,0.00
2014-1-13,48.1,43.0,32.4,35.2,29.9,18.3,64,60,51,30.15,29.93,8,2,8,0.00
2014-1-14,43.7,40.7,34.9,29.3,-5.5,-13.6,58,11,1,29.98,29.78,6,2,6,0.00
2014-1-15,36.2,34.2,33.5,2.4,-11.0,-17.4,24,12,2,29.98,29.96,3,1,3,0.00
2014-1-16,27.5,26.2,25.4,16.6,15.9,15.2,65,65,64,29.99,29.97,4,1,4,0.00
2014-1-17,41.2,32.5,25.0,29.4,20.5,13.2,65,61,54,29.98,29.88,6,1,6,0.00
2014-1-18,32.0,19.9,14.2,15.8,2.3,-24.6,69,53,1,29.98,29.86,13,6,13,0.00
2014-1-19,34.7,26.4,15.1,24.1,16.4,6.8,70,66,62,29.93,29.75,9,4,9,0.00
2014-1-20,42.1,36.4,32.0,29.4,24.2,20.4,66,61,56,29.90,29.71,10,5,10,0.00
2014-1-21,30.1,18.5,5.9,19.8,7.2,-4.0,71,61,49,29.92,29.80,9,3,9,0.00
2014-1-22,9.0,4.1,-3.1,-2.5,-5.2,-9.5,74,65,58,30.04,29.89,9,4,9,0.00
2014-1-23,17.3,8.9,3.8,6.9,-0.2,-4.5,70,66,61,30.38,30.04,10,4,10,0.00
2014-1-24,14.0,7.5,0.0,1.1,-2.8,-7.0,73,63,51,30.42,29.99,10,4,10,0.00
2014-1-25,25.9,18.4,9.9,16.0,7.2,-1.6,69,61,54,29.99,29.48,12,4,12,0.00
2014-1-27,12.8,10.7,8.3,0.3,-1.9,-3.7,59,56,52,30.17,30.09,10,5,10,0.00
2014-1-28,10.4,5.6,0.4,-1.3,-6.0,-9.0,67,59,51,30.37,30.17,11,3,11,0.00
2014-1-29,14.8,8.6,1.1,-0.9,-4.1,-10.3,73,56,46,30.30,30.15,12,5,12,0.00
2014-1-30,29.9,17.4,6.5,9.7,2.0,-4.7,62,51,37,30.41,30.15,10,2,10,0.00
2014-1-31,40.5,30.3,18.9,18.2,13.1,5.7,62,49,38,30.27,30.10,8,2,9,0.00
2014-2-1,44.5,37.2,30.4,24.4,17.5,12.0,60,45,35,30.32,30.05,10,2,10,0.00
2014-2-2,51.5,44.0,35.6,39.7,29.8,15.5,64,58,35,30.17,30.01,7,2,7,0.00
2014-2-3,38.0,32.3,28.1,16.6,9.5,-0.9,60,39,24,30.36,30.10,7,1,7,0.00
2014-2-4,33.5,26.0,20.3,23.9,16.1,10.4,70,66,56,30.48,30.18,0,0,0,0.00
2014-2-5,35.8,30.5,24.1,22.8,10.0,1.5,71,44,24,30.20,29.73,9,0,9,0.00
2014-2-6,26.5,22.3,18.4,17.1,14.0,10.8,73,70,65,30.34,30.13,8,2,8,0.00
2014-2-7,30.1,24.4,19.8,19.1,14.9,9.8,72,67,61,30.35,30.26,7,3,7,0.00
2014-2-8,29.2,22.0,18.2,17.5,12.2,9.2,72,66,52,30.34,30.19,6,1,6,0.00
2014-2-9,26.6,23.2,18.0,18.5,13.2,2.8,73,66,36,30.20,30.00,6,2,7,0.00
2014-2-10,24.5,18.9,12.6,15.4,9.4,3.8,72,66,57,30.32,30.07,11,4,11,0.00
2014-2-11,22.0,15.6,9.0,9.8,5.9,2.1,74,65,55,30.46,30.30,8,2,8,0.00
2014-2-12,23.4,15.1,6.5,10.0,5.4,-1.4,74,65,54,30.48,30.18,6,2,6,0.00
2014-2-13,32.8,26.1,16.4,16.0,5.2,-2.1,71,43,25,30.19,29.43,13,5,13,0.00
2014-2-14,39.6,32.8,26.3,27.1,21.9,16.4,73,64,55,29.81,29.47,12,5,12,0.14
2014-2-15,33.5,28.5,19.1,24.7,16.6,8.7,72,61,45,29.97,29.70,16,4,16,0.00
2014-2-16,28.3,20.9,14.9,17.1,11.3,6.2,74,66,54,30.20,29.94,12,4,12,0.00
2014-2-17,31.3,20.5,10.1,16.6,9.1,3.8,76,62,42,30.43,30.18,14,3,14,0.00
2014-2-18,43.4,33.1,20.5,30.5,21.6,11.7,74,63,51,30.20,30.02,12,4,12,0.00
2014-2-19,52.0,41.7,34.6,40.4,29.0,20.7,71,61,49,30.20,29.80,20,4,20,0.00
2014-2-20,49.7,40.1,30.1,28.3,24.6,21.4,71,55,38,30.29,29.99,11,2,11,0.00
2014-2-21,48.6,43.0,39.8,35.0,25.0,2.7,70,52,16,30.03,29.76,14,4,14,0.00
2014-2-22,52.0,43.2,36.0,27.6,22.1,19.0,55,44,30,30.15,30.03,10,4,10,0.00
2014-2-24,33.1,28.4,23.4,14.0,11.5,8.4,66,49,41,30.15,30.02,12,5,12,0.00
2014-2-25,30.4,25.1,22.0,19.1,12.8,8.2,72,59,51,30.14,30.02,11,4,11,0.00
2014-2-26,16.6,15.2,13.3,3.5,2.7,1.6,59,57,56,29.89,29.86,3,1,3,0.00
2014-2-27,27.0,16.7,6.8,10.7,4.0,-5.3,69,58,41,30.14,29.71,13,4,13,0.00
2014-2-28,24.1,12.9,2.2,3.4,-2.4,-9.0,63,51,37,30.38,30.14,7,2,7,0.00
2014-3-1,39.1,26.4,13.5,20.3,11.8,-1.3,64,54,46,30.35,30.20,7,2,7,0.00
2014-3-2,42.3,35.3,27.7,30.3,23.1,16.5,71,61,49,30.20,30.05,8,2,8,0.00
2014-3-3,27.7,15.9,9.9,17.8,5.3,-1.4,77,63,51,30.33,30.05,10,3,10,0.00
2014-3-4,34.2,19.1,7.4,12.9,3.8,-2.7,65,52,37,30.39,30.24,4,1,5,0.00
2014-3-5,38.9,28.0,16.6,15.0,10.3,1.9,63,48,31,30.44,30.19,8,3,8,0.00
2014-3-6,32.0,22.2,13.9,15.5,10.3,5.4,70,60,48,30.56,30.43,9,3,9,0.00
2014-3-7,40.1,32.8,21.6,28.5,23.5,14.9,75,69,62,30.28,30.00,5,1,5,0.00
2014-3-8,52.4,41.7,30.1,35.7,30.0,22.1,74,64,51,30.03,29.97,8,3,8,0.00
2014-3-9,40.9,34.4,28.4,32.2,21.5,15.8,73,60,45,30.17,30.01,11,4,11,0.00
2014-3-10,56.9,45.8,34.0,34.5,29.3,19.9,63,53,41,30.05,29.76,11,4,11,0.00
2014-3-11,61.2,52.5,47.5,41.8,37.1,32.7,64,56,47,29.84,29.75,9,4,9,0.00
2014-3-13,24.5,20.7,11.0,7.3,4.7,-0.3,62,50,44,30.16,29.81,15,8,15,0.00
2014-3-14,50.6,36.4,21.1,25.6,16.8,7.0,56,46,36,30.21,29.92,11,4,11,0.00
2014-3-15,55.1,47.3,39.6,34.4,27.1,22.2,68,46,30,30.14,29.87,12,5,12,0.00
2014-3-16,39.4,32.6,28.4,25.9,21.6,15.1,73,64,43,30.23,30.13,9,3,9,0.00
2014-3-17,32.6,27.6,26.1,22.0,18.9,18.2,72,70,64,30.11,30.04,4,1,4,0.00
2014-3-18,40.3,36.1,34.0,23.0,22.2,21.5,63,57,50,30.27,30.22,7,2,7,0.00
2014-3-19,37.8,34.5,30.1,28.2,24.6,21.4,77,67,55,30.26,29.92,9,2,9,0.00
2014-3-20,46.8,41.4,35.3,32.7,26.8,20.4,74,57,43,30.06,29.88,15,6,15,0.00
2014-3-21,47.2,38.9,31.3,34.3,28.3,23.1,74,66,50,30.14,30.05,8,3,8,0.00
2014-3-22,61.9,48.1,38.2,37.3,31.0,27.0,75,54,30,30.11,29.90,11,4,11,0.00
2014-3-23,39.4,33.8,23.4,27.8,20.5,8.2,69,59,42,30.21,30.07,9,4,9,0.00
2014-3-24,32.8,24.1,15.5,10.2,7.3,5.0,66,50,36,30.30,30.16,9,3,9,0.00
2014-3-25,33.7,27.8,23.6,25.4,17.4,6.0,78,66,46,30.17,29.91,6,1,6,0.00
2014-3-26,28.6,23.8,19.6,19.4,10.4,3.9,80,58,37,30.31,29.94,14,5,14,0.00
2014-3-27,43.6,32.1,17.6,21.9,15.4,6.5,63,51,38,30.42,30.21,12,3,12,0.00
2014-3-28,57.6,46.7,38.5,48.2,35.2,21.1,74,65,47,30.21,30.06,10,3,10,0.00
2014-3-29,51.8,45.9,43.7,43.2,31.4,19.8,74,58,37,30.21,29.69,8,2,8,0.00
2014-3-30,44.6,37.4,31.9,29.0,19.3,13.0,71,49,36,29.90,29.64,17,6,17,0.00
2014-3-31,57.4,43.0,33.3,34.9,29.3,25.4,73,60,33,30.15,29.89,17,6,17,0.00
2014-4-1,60.8,48.4,35.6,38.7,31.6,23.9,67,53,42,30.24,30.05,6,2,6,0.00
2014-4-2,60.3,53.5,47.7,47.1,36.7,28.5,69,54,36,30.21,30.10,7,2,7,0.00
2014-4-3,56.5,50.0,45.7,41.1,37.0,31.3,71,61,45,30.21,30.03,5,2,5,0.00
2014-4-4,48.4,45.4,41.4,37.2,31.5,24.7,71,59,43,30.04,29.80,10,3,10,0.00
2014-4-5,48.1,42.0,35.3,34.3,28.3,19.6,71,59,37,30.23,29.84,12,5,12,0.00
2014-4-6,56.2,42.5,30.6,31.6,24.3,20.4,68,51,29,30.30,30.20,9,2,10,0.00
2014-4-7,46.4,39.7,35.6,29.6,23.7,20.3,74,54,36,30.24,29.70,12,2,12,0.00
2014-4-8,54.2,48.6,43.6,43.0,30.8,19.2,69,51,31,29.81,29.56,12,4,12,0.00
2014-4-9,50.8,45.7,41.9,32.9,29.6,25.7,66,54,39,30.14,29.79,7,2,7,0.00
2014-4-10,66.1,53.5,38.5,36.5,30.0,21.2,53,41,32,30.28,30.09,11,3,11,0.00
2014-4-11,73.8,58.3,54.0,47.6,37.8,33.6,66,47,34,30.17,30.07,7,3,7,0.00
2014-4-12,70.0,59.5,47.9,42.4,37.2,30.2,70,46,24,30.36,30.16,5,2,5,0.00
2014-4-13,78.1,64.7,52.7,55.5,48.9,41.0,69,58,41,30.23,30.10,7,3,7,0.00
2014-4-14,72.5,65.3,58.7,55.3,52.1,48.5,69,63,51,30.10,29.91,11,4,11,0.00
2014-4-15,63.5,49.3,28.4,53.5,33.2,19.3,75,56,29,30.10,29.66,14,6,14,0.00
2014-4-16,43.2,31.8,23.0,21.8,17.5,13.2,70,56,39,30.56,30.08,11,3,16,0.00
2014-4-17,52.2,39.8,29.2,32.0,25.1,18.1,71,56,41,30.67,30.56,12,2,12,0.00
2014-4-18,53.6,41.6,30.6,37.2,30.6,23.6,75,65,51,30.62,30.33,7,2,7,0.00
2014-4-19,64.4,49.9,40.3,39.4,33.5,25.7,72,56,30,30.41,30.30,7,2,7,0.00
2014-4-20,61.6,50.0,41.4,36.9,30.8,24.0,60,48,38,30.50,30.36,7,2,7,0.00
2014-4-21,69.5,53.7,37.1,35.6,28.2,22.2,64,41,19,30.37,29.99,7,2,7,0.00
2014-4-22,66.8,56.1,47.0,53.7,43.3,29.9,72,63,39,29.99,29.71,10,2,10,0.00
2014-4-23,49.0,43.5,39.4,37.3,33.0,28.0,72,66,59,30.07,29.79,15,6,15,0.00
2014-4-24,58.3,46.1,32.8,28.2,23.3,19.7,65,43,23,30.20,30.06,8,3,8,0.00
2014-4-25,64.1,50.7,44.3,42.4,31.9,20.3,73,50,35,30.12,29.84,12,2,12,0.00
2014-4-26,70.7,55.7,43.6,48.2,39.0,26.8,74,55,33,30.03,29.86,11,5,11,0.00
2014-4-27,60.5,49.0,36.7,37.8,32.0,26.4,72,53,36,30.21,30.03,7,2,7,0.00
2014-4-28,58.5,48.8,41.2,40.9,35.5,30.2,73,61,48,30.21,30.07,10,2,10,0.00
2014-4-29,46.1,43.8,42.5,34.9,27.9,23.9,65,53,47,30.28,30.12,12,4,12,0.00
2014-4-30,52.6,44.9,42.1,24.1,21.9,17.0,48,41,25,30.26,29.98,11,4,11,0.00
2014-5-4,52.4,49.3,46.3,37.5,34.8,29.5,61,57,52,30.04,29.96,9,4,9,0.00
2014-5-5,61.7,50.0,38.2,38.2,34.0,28.6,72,56,36,30.15,30.01,8,3,8,0.00
2014-5-6,68.8,57.6,46.3,45.7,38.2,33.8,69,51,31,30.17,29.99,8,2,8,0.00
2014-5-7,59.8,52.5,46.1,48.0,40.0,30.2,72,63,45,30.37,30.17,9,2,9,0.00
2014-5-8,81.9,65.3,49.7,59.2,47.4,28.4,65,53,37,30.26,30.15,6,2,6,0.00
2014-5-9,79.0,67.3,58.5,63.5,51.1,33.3,66,57,36,30.23,30.07,9,2,9,0.00
2014-5-10,73.1,65.8,58.1,59.2,48.1,29.2,65,54,28,30.14,30.05,9,3,9,0.04
2014-5-11,75.1,64.9,55.4,53.6,44.4,28.0,65,48,35,30.27,30.10,5,2,5,0.00
2014-5-12,81.2,68.9,59.2,62.7,55.2,47.6,66,62,50,30.27,30.21,6,1,6,0.00
2014-5-13,85.5,73.0,63.0,66.7,55.1,35.7,65,54,37,30.28,30.20,9,2,9,0.00
2014-5-14,59.9,59.9,59.8,24.6,24.3,23.7,26,26,25,30.27,30.26,5,2,5,0.00
2014-5-15,76.0,66.2,60.7,57.8,26.5,5.8,54,25,10,30.21,30.02,13,3,13,1.89
2014-5-16,64.4,56.7,48.4,49.3,28.6,5.7,65,40,5,30.06,29.89,13,3,13,3.30
2014-5-17,61.2,52.1,45.5,43.8,36.8,30.2,65,56,43,30.27,30.05,7,2,7,0.00
2014-5-18,61.4,51.2,43.0,42.4,35.7,30.4,65,56,41,30.34,30.26,7,2,7,0.00
2014-5-19,68.6,56.3,44.5,44.4,37.3,32.7,65,50,34,30.40,30.27,6,1,6,0.00
2014-5-20,71.1,60.6,50.6,47.8,41.6,35.9,63,50,35,30.32,30.15,4,1,4,0.00
2014-5-21,68.6,62.3,56.9,55.0,48.0,42.1,64,60,48,30.15,30.02,3,1,3,0.00
2014-5-22,79.0,66.6,58.3,63.0,42.4,14.8,64,44,16,30.06,29.93,11,2,11,0.58
2014-5-23,69.1,61.2,52.0,53.4,46.5,35.4,65,59,51,30.09,30.03,6,3,6,0.00
2014-5-24,71.1,65.2,58.5,53.9,50.2,45.4,65,59,50,30.25,30.17,6,1,6,0.00
2014-5-25,76.7,64.7,54.0,54.1,47.4,40.7,63,54,39,30.30,30.22,7,1,7,0.00
2014-5-26,79.6,68.5,57.6,57.5,51.7,45.5,65,56,41,30.27,30.13,4,1,4,0.00
2014-5-27,83.3,69.7,64.6,67.0,51.3,28.7,65,54,26,30.15,30.02,8,1,8,0.00
2014-5-28,76.0,68.0,58.7,55.8,33.7,17.3,50,30,16,30.18,30.00,5,1,5,0.00
2014-5-29,58.3,53.3,51.7,31.3,24.0,21.2,36,32,29,30.28,30.18,6,1,6,0.00
2014-5-30,70.4,59.5,51.8,55.9,34.4,17.0,61,41,23,30.26,30.19,4,1,4,0.00
2014-5-31,70.9,59.8,55.6,51.0,43.5,39.1,63,55,47,30.32,30.25,6,1,6,0.00
2014-6-7,78.1,72.1,63.2,59.6,55.6,51.0,65,56,47,30.19,30.10,4,1,4,0.00
2014-6-8,78.8,67.8,61.6,63.9,54.3,47.6,65,62,59,30.12,30.02,8,1,8,0.00
2014-6-9,72.9,70.1,68.4,48.4,38.3,26.8,42,32,21,30.04,30.02,2,0,2,0.00
2014-6-10,79.4,71.5,65.5,56.1,29.9,9.6,46,23,10,30.09,30.01,3,0,3,0.00
2014-6-11,70.9,70.9,70.9,32.0,32.0,32.0,24,24,24,30.08,30.08,0,0,0,0.00
2014-6-12,67.5,67.2,67.0,9.1,8.9,8.6,2,1,1,30.02,29.99,4,2,4,0.00
2014-6-13,76.9,68.1,63.2,51.3,21.6,8.4,48,16,1,30.02,29.89,4,1,4,0.00
2014-6-14,67.9,61.5,55.6,53.0,34.3,4.7,60,41,8,30.24,30.02,10,2,10,0.00
2014-6-15,76.0,64.0,52.7,59.6,45.3,29.0,59,51,36,30.30,30.22,4,0,4,0.00
2014-6-16,85.3,72.0,62.3,67.1,43.4,11.4,58,38,12,30.29,30.20,4,1,4,0.00
2014-6-17,86.4,76.6,68.4,67.5,43.4,18.4,55,33,15,30.27,30.12,5,1,5,0.00
2014-6-18,85.7,78.4,71.6,68.9,56.7,34.8,59,48,25,30.19,30.10,5,1,6,0.00
2014-6-19,74.9,69.0,63.4,37.6,19.8,6.6,27,16,7,30.19,30.10,5,1,5,0.00
2014-6-20,77.4,65.9,52.9,59.0,41.5,7.9,61,45,12,30.20,30.08,4,0,4,0.00
2014-6-21,64.4,62.2,59.6,50.7,39.8,26.9,61,45,27,30.08,30.02,4,0,4,0.00
2014-6-28,80.3,74.0,65.5,62.1,55.3,31.4,58,52,28,30.41,30.33,6,2,6,0.00
2014-6-29,80.6,70.6,63.0,61.9,50.2,32.6,59,49,31,30.37,30.24,6,1,6,0.00
2014-6-30,82.4,72.9,64.6,62.1,46.3,24.2,55,40,17,30.25,30.09,4,1,4,0.00
2014-7-1,86.9,76.0,68.0,64.3,27.8,9.5,48,16,1,30.11,29.99,7,1,7,0.00
2014-7-2,88.9,75.9,71.3,65.3,19.5,12.0,46,7,1,30.10,30.01,5,1,5,0.00
2014-7-3,86.2,73.3,68.6,66.9,20.1,9.9,53,9,1,30.15,30.04,6,0,6,0.00
2014-7-4,71.5,65.7,60.1,55.5,31.4,3.5,59,32,1,30.31,30.14,9,2,9,0.01
2014-7-5,76.9,65.4,56.7,55.2,46.1,30.9,59,50,37,30.38,30.29,6,1,6,0.00
2014-7-6,78.8,68.9,59.8,61.5,49.6,35.7,58,50,38,30.29,30.10,4,0,4,0.00
2014-7-7,86.2,76.0,67.3,68.1,52.9,26.9,57,46,22,30.10,29.95,7,1,7,0.00
2014-7-8,84.2,76.4,70.2,66.9,54.2,38.2,56,47,31,30.01,29.84,12,2,12,0.00
2014-7-9,79.9,78.6,77.8,49.8,47.8,47.0,37,34,33,30.04,30.03,2,1,2,0.00
2014-7-17,74.7,68.4,60.5,57.1,45.5,3.7,56,47,10,30.27,30.16,6,1,6,0.00
2014-7-18,77.0,66.8,58.7,59.0,44.3,17.6,56,45,18,30.36,30.27,5,0,5,0.00
2014-7-19,74.5,68.9,65.3,55.3,43.8,37.5,51,41,36,30.34,30.30,6,1,6,0.02
2014-7-20,79.6,73.1,66.8,60.9,30.8,8.6,54,23,1,30.26,30.21,5,1,5,0.00
2014-7-21,74.5,67.8,65.7,14.4,9.3,7.7,1,1,1,30.32,30.24,4,1,4,0.00
2014-7-29,57.8,57.8,57.8,6.1,6.1,6.1,13,13,13,30.12,30.12,1,0,1,0.00
2014-8-6,73.4,66.5,63.7,13.7,8.3,6.1,1,1,1,30.10,30.07,4,1,4,0.00
2014-11-30,49.3,45.6,37.8,-5.0,-7.8,-13.9,3,1,1,30.19,30.10,6,2,6,0.21
2014-12-1,60.8,47.0,35.1,4.0,-6.3,-15.7,24,2,1,30.50,30.18,10,3,10,0.16
2014-12-2,35.3,32.0,29.9,-0.9,-17.1,-20.1,21,6,1,30.57,30.48,6,2,6,0.00
2014-12-6,42.3,39.0,35.6,-10.4,-12.9,-15.7,1,1,1,30.33,30.09,9,2,9,0.53
2014-12-7,38.3,33.0,28.1,22.3,6.3,-20.5,56,36,1,30.58,30.32,10,3,10,0.00
2014-12-8,28.1,26.1,24.5,14.6,-4.4,-24.4,58,30,1,30.58,30.27,7,2,7,0.00
2014-12-9,36.0,32.2,27.0,-15.4,-18.3,-22.4,1,1,1,30.27,29.93,8,1,8,0.01
2014-12-10,36.7,33.8,29.9,-14.7,-17.1,-20.1,1,1,1,29.94,29.82,12,7,12,0.06
2014-12-11,30.6,29.0,27.0,15.8,-11.5,-22.4,55,16,1,29.99,29.81,12,6,12,0.00
2014-12-12,33.3,31.0,28.3,16.9,-8.7,-21.4,55,18,1,30.13,29.98,11,6,11,0.00
2014-12-13,34.9,31.5,28.6,-16.2,-18.9,-21.0,5,1,1,30.14,30.01,9,5,10,0.00
2014-12-14,44.3,40.3,32.4,-8.9,-12.0,-18.1,1,1,1,30.08,29.97,11,6,11,0.00
2014-12-15,49.3,42.8,35.3,-5.0,-10.1,-15.9,1,1,1,30.15,30.06,7,2,7,0.00
2014-12-16,39.8,37.3,34.7,-12.3,-14.3,-16.4,1,1,1,30.08,29.90,5,2,5,0.13
2014-12-17,42.8,37.9,30.8,16.7,-6.5,-15.8,40,11,1,30.08,29.94,10,5,10,0.00
2014-12-18,31.3,28.9,26.8,7.3,-10.0,-22.0,40,17,1,30.16,30.06,10,5,10,0.00
2014-12-19,34.2,28.8,25.2,6.8,-16.8,-23.9,32,9,1,30.24,30.08,9,5,9,0.00
2014-12-20,32.4,26.6,22.0,9.2,-17.6,-26.5,38,12,1,30.30,30.22,6,2,6,0.00
2014-12-21,33.5,28.5,24.5,6.7,-10.8,-22.9,33,16,1,30.35,30.28,5,1,5,0.00
2014-12-22,32.0,26.7,23.0,0.5,-14.3,-25.3,28,13,1,30.32,30.12,3,1,3,0.01
2014-12-23,43.6,38.7,32.0,-9.5,-13.2,-18.4,1,1,1,30.11,30.05,5,1,5,0.02
2014-12-24,49.5,44.6,42.5,-4.8,-8.7,-10.3,1,1,1,30.08,29.62,4,1,4,0.72
2015-1-2,36.4,33.5,29.9,21.3,19.4,17.3,59,56,53,30.44,30.30,5,2,5,0.00